EJU37PK EHAM-LIML
Flight info
| Callsign | EJU37PK |
|---|---|
| Flight time | 1h 19m |
| Altitude | 37000 |
| Route | LOPIK N852 GESLO DCT LIMGO DCT SUTAL DCT GTQ DCT DEVDI DCT ODINA |
| Aircraft | A320/M-SDE2E3FGHIJ1RWXYZ/LB1 |
Departure
| Time | 2026-04-29 00:50 |
|---|---|
| Airport | Amsterdam Airport Schiphol (EHAM) |
Arrival
| Time | 2026-04-29 02:10 |
|---|---|
| Airport | Milano Linate Airport (LIML) |
| Time | Latitude | Longitude | Altitude | Speed | Heading |
|---|---|---|---|---|---|
| 2026-04-29 00:20 | 52.31010 | 4.75403 | 2 ft | 0 kts | 148° |
| 2026-04-29 00:42 | 52.31014 | 4.75399 | 2 ft | 2 kts | 148° |
| 2026-04-29 00:42 | 52.31024 | 4.75388 | 2 ft | 0 kts | 148° |
| 2026-04-29 00:42 | 52.31034 | 4.75374 | 2 ft | 2 kts | 118° |
| 2026-04-29 00:42 | 52.31039 | 4.75349 | 2 ft | 2 kts | 89° |
| 2026-04-29 00:43 | 52.31038 | 4.75334 | 2 ft | 1 kts | 69° |
| 2026-04-29 00:43 | 52.31036 | 4.75325 | 2 ft | 0 kts | 71° |
| 2026-04-29 00:45 | 52.31037 | 4.75332 | 1 ft | 1 kts | 67° |
| 2026-04-29 00:45 | 52.31045 | 4.75356 | 1 ft | 3 kts | 50° |
| 2026-04-29 00:45 | 52.31065 | 4.75396 | 1 ft | 5 kts | 55° |
| 2026-04-29 00:45 | 52.31089 | 4.75455 | 1 ft | 6 kts | 53° |
| 2026-04-29 00:46 | 52.31121 | 4.75494 | 2 ft | 5 kts | 20° |
| 2026-04-29 00:46 | 52.31160 | 4.75494 | 2 ft | 6 kts | 356° |
| 2026-04-29 00:46 | 52.31209 | 4.75490 | 2 ft | 7 kts | 358° |
| 2026-04-29 00:46 | 52.31265 | 4.75489 | 2 ft | 8 kts | 355° |
| 2026-04-29 00:47 | 52.31329 | 4.75479 | 2 ft | 9 kts | 355° |
| 2026-04-29 00:47 | 52.31401 | 4.75470 | 2 ft | 9 kts | 339° |
| 2026-04-29 00:47 | 52.31475 | 4.75431 | 1 ft | 10 kts | 338° |
| 2026-04-29 00:47 | 52.31510 | 4.75330 | 0 ft | 12 kts | 265° |
| 2026-04-29 00:48 | 52.31503 | 4.75183 | 0 ft | 13 kts | 266° |
| 2026-04-29 00:48 | 52.31498 | 4.75016 | -3 ft | 16 kts | 268° |
| 2026-04-29 00:48 | 52.31494 | 4.74823 | -4 ft | 17 kts | 266° |
| 2026-04-29 00:48 | 52.31508 | 4.74668 | -7 ft | 12 kts | 340° |
| 2026-04-29 00:49 | 52.31599 | 4.74658 | -7 ft | 12 kts | 0° |
| 2026-04-29 00:49 | 52.31665 | 4.74736 | -7 ft | 11 kts | 79° |
| 2026-04-29 00:49 | 52.31673 | 4.74890 | -7 ft | 17 kts | 84° |
| 2026-04-29 00:49 | 52.31697 | 4.75527 | -1 ft | 89 kts | 88° |
| 2026-04-29 00:50 | 52.31747 | 4.76982 | 3 ft | 149 kts | 85° |
| 2026-04-29 00:50 | 52.31826 | 4.78855 | 477 ft | 163 kts | 89° |
| 2026-04-29 00:50 | 52.31694 | 4.80701 | 1333 ft | 160 kts | 117° |
| 2026-04-29 00:50 | 52.30717 | 4.81916 | 1804 ft | 190 kts | 151° |
| 2026-04-29 00:51 | 52.29366 | 4.82635 | 2221 ft | 210 kts | 153° |
| 2026-04-29 00:51 | 52.27927 | 4.83458 | 2947 ft | 215 kts | 153° |
| 2026-04-29 00:51 | 52.26447 | 4.84360 | 3714 ft | 218 kts | 149° |
| 2026-04-29 00:51 | 52.25087 | 4.85596 | 4458 ft | 219 kts | 139° |
| 2026-04-29 00:52 | 52.23805 | 4.87190 | 4962 ft | 234 kts | 136° |
| 2026-04-29 00:52 | 52.22396 | 4.89036 | 5482 ft | 252 kts | 136° |
| 2026-04-29 00:52 | 52.20950 | 4.90930 | 6220 ft | 260 kts | 137° |
| 2026-04-29 00:52 | 52.19454 | 4.92874 | 7050 ft | 265 kts | 137° |
| 2026-04-29 00:53 | 52.17942 | 4.94835 | 7846 ft | 269 kts | 137° |
| 2026-04-29 00:53 | 52.16427 | 4.96797 | 8671 ft | 274 kts | 138° |
| 2026-04-29 00:53 | 52.14893 | 4.98783 | 9479 ft | 278 kts | 138° |
| 2026-04-29 00:53 | 52.13359 | 5.00766 | 10277 ft | 282 kts | 138° |
| 2026-04-29 00:54 | 52.11845 | 5.02722 | 10916 ft | 290 kts | 138° |
| 2026-04-29 00:54 | 52.10097 | 5.04720 | 11414 ft | 306 kts | 147° |
| 2026-04-29 00:54 | 52.08094 | 5.06178 | 12198 ft | 312 kts | 159° |
| 2026-04-29 00:54 | 52.05927 | 5.07219 | 12968 ft | 315 kts | 161° |
| 2026-04-29 00:55 | 52.03745 | 5.08175 | 13654 ft | 320 kts | 162° |
| 2026-04-29 00:55 | 52.01546 | 5.09131 | 14332 ft | 324 kts | 162° |
| 2026-04-29 00:55 | 51.99367 | 5.10086 | 14985 ft | 327 kts | 162° |
| 2026-04-29 00:55 | 51.97151 | 5.11067 | 15631 ft | 330 kts | 162° |
| 2026-04-29 00:56 | 51.94918 | 5.12061 | 16254 ft | 333 kts | 162° |
| 2026-04-29 00:56 | 51.92659 | 5.13066 | 16853 ft | 337 kts | 161° |
| 2026-04-29 00:56 | 51.90386 | 5.14077 | 17450 ft | 340 kts | 161° |
| 2026-04-29 00:56 | 51.88090 | 5.15096 | 18013 ft | 344 kts | 161° |
| 2026-04-29 00:57 | 51.85753 | 5.16132 | 18569 ft | 347 kts | 161° |
| 2026-04-29 00:57 | 51.83405 | 5.17170 | 19121 ft | 350 kts | 161° |
| 2026-04-29 00:57 | 51.81046 | 5.18213 | 19664 ft | 353 kts | 161° |
| 2026-04-29 00:57 | 51.78655 | 5.19271 | 20197 ft | 356 kts | 160° |
| 2026-04-29 00:58 | 51.76236 | 5.20341 | 20722 ft | 359 kts | 160° |
| 2026-04-29 00:58 | 51.73779 | 5.21425 | 21241 ft | 362 kts | 160° |
| 2026-04-29 00:58 | 51.71336 | 5.22501 | 21757 ft | 364 kts | 160° |
| 2026-04-29 00:58 | 51.68853 | 5.23597 | 22266 ft | 366 kts | 160° |
| 2026-04-29 00:59 | 51.66357 | 5.24697 | 22766 ft | 369 kts | 160° |
| 2026-04-29 00:59 | 51.63882 | 5.25785 | 23239 ft | 371 kts | 160° |
| 2026-04-29 00:59 | 51.61346 | 5.26900 | 23711 ft | 374 kts | 160° |
| 2026-04-29 00:59 | 51.58812 | 5.28011 | 24172 ft | 376 kts | 160° |
| 2026-04-29 01:00 | 51.56256 | 5.29132 | 24615 ft | 379 kts | 160° |
| 2026-04-29 01:00 | 51.53704 | 5.30250 | 25055 ft | 382 kts | 160° |
| 2026-04-29 01:00 | 51.51070 | 5.31403 | 25510 ft | 384 kts | 160° |
| 2026-04-29 01:00 | 51.48379 | 5.32577 | 25948 ft | 386 kts | 160° |
| 2026-04-29 01:01 | 51.45719 | 5.33737 | 26380 ft | 389 kts | 160° |
| 2026-04-29 01:01 | 51.43015 | 5.34913 | 26804 ft | 391 kts | 160° |
| 2026-04-29 01:01 | 51.40271 | 5.36107 | 27221 ft | 393 kts | 160° |
| 2026-04-29 01:01 | 51.37536 | 5.37296 | 27635 ft | 395 kts | 160° |
| 2026-04-29 01:02 | 51.34795 | 5.38492 | 28031 ft | 397 kts | 160° |
| 2026-04-29 01:02 | 51.32036 | 5.39693 | 28399 ft | 399 kts | 160° |
| 2026-04-29 01:02 | 51.29308 | 5.40881 | 28758 ft | 401 kts | 161° |
| 2026-04-29 01:02 | 51.26457 | 5.42084 | 29138 ft | 404 kts | 162° |
| 2026-04-29 01:03 | 51.23589 | 5.43070 | 29501 ft | 407 kts | 164° |
| 2026-04-29 01:03 | 51.20737 | 5.44023 | 29838 ft | 409 kts | 164° |
| 2026-04-29 01:03 | 51.17820 | 5.45057 | 30173 ft | 410 kts | 162° |
| 2026-04-29 01:03 | 51.14940 | 5.46296 | 30500 ft | 411 kts | 161° |
| 2026-04-29 01:04 | 51.12068 | 5.47552 | 30805 ft | 413 kts | 161° |
| 2026-04-29 01:04 | 51.09207 | 5.48804 | 31112 ft | 414 kts | 161° |
| 2026-04-29 01:04 | 51.06398 | 5.50031 | 31397 ft | 416 kts | 161° |
| 2026-04-29 01:04 | 51.03602 | 5.51250 | 31672 ft | 417 kts | 161° |
| 2026-04-29 01:05 | 51.00769 | 5.52481 | 31939 ft | 419 kts | 162° |
| 2026-04-29 01:05 | 50.97926 | 5.53716 | 32187 ft | 421 kts | 162° |
| 2026-04-29 01:05 | 50.95090 | 5.54945 | 32563 ft | 419 kts | 162° |
| 2026-04-29 01:05 | 50.92241 | 5.56178 | 33274 ft | 408 kts | 162° |
| 2026-04-29 01:06 | 50.89460 | 5.57382 | 34008 ft | 396 kts | 162° |
| 2026-04-29 01:06 | 50.86716 | 5.58567 | 34543 ft | 390 kts | 162° |
| 2026-04-29 01:06 | 50.84017 | 5.59734 | 34769 ft | 391 kts | 162° |
| 2026-04-29 01:06 | 50.81231 | 5.60937 | 34917 ft | 394 kts | 162° |
| 2026-04-29 01:07 | 50.78428 | 5.62146 | 35079 ft | 397 kts | 162° |
| 2026-04-29 01:07 | 50.75657 | 5.63341 | 35213 ft | 401 kts | 162° |
| 2026-04-29 01:07 | 50.72824 | 5.64559 | 35219 ft | 408 kts | 162° |
| 2026-04-29 01:08 | 50.66993 | 5.67077 | 35222 ft | 422 kts | 162° |
| 2026-04-29 01:08 | 50.60930 | 5.69894 | 35222 ft | 436 kts | 162° |
| 2026-04-29 01:09 | 50.54808 | 5.73201 | 35211 ft | 448 kts | 159° |
| 2026-04-29 01:09 | 50.48636 | 5.76835 | 35200 ft | 460 kts | 160° |
| 2026-04-29 01:10 | 50.42329 | 5.80528 | 35192 ft | 461 kts | 161° |
| 2026-04-29 01:10 | 50.36016 | 5.84204 | 35183 ft | 461 kts | 161° |
| 2026-04-29 01:11 | 50.29720 | 5.87865 | 35178 ft | 459 kts | 162° |
| 2026-04-29 01:11 | 50.23383 | 5.91537 | 35177 ft | 457 kts | 163° |
| 2026-04-29 01:12 | 50.17123 | 5.95155 | 35175 ft | 456 kts | 163° |
| 2026-04-29 01:12 | 50.10922 | 5.98734 | 35172 ft | 455 kts | 163° |
| 2026-04-29 01:13 | 50.04680 | 6.02432 | 35170 ft | 454 kts | 162° |
| 2026-04-29 01:13 | 49.98543 | 6.06334 | 35166 ft | 454 kts | 162° |
| 2026-04-29 01:14 | 49.92453 | 6.10189 | 35164 ft | 454 kts | 162° |
| 2026-04-29 01:14 | 49.86303 | 6.14053 | 35167 ft | 453 kts | 162° |
| 2026-04-29 01:15 | 49.80116 | 6.17922 | 35158 ft | 455 kts | 162° |
| 2026-04-29 01:15 | 49.73918 | 6.21785 | 35160 ft | 455 kts | 162° |
| 2026-04-29 01:16 | 49.67796 | 6.25598 | 35170 ft | 454 kts | 162° |
| 2026-04-29 01:16 | 49.61641 | 6.29441 | 35170 ft | 454 kts | 162° |
| 2026-04-29 01:17 | 49.55583 | 6.33367 | 35156 ft | 454 kts | 161° |
| 2026-04-29 01:17 | 49.49420 | 6.37356 | 35157 ft | 455 kts | 161° |
| 2026-04-29 01:18 | 49.43372 | 6.41318 | 35142 ft | 456 kts | 160° |
| 2026-04-29 01:18 | 49.34285 | 6.47538 | 35140 ft | 456 kts | 160° |
| 2026-04-29 01:19 | 49.28215 | 6.51668 | 35131 ft | 456 kts | 160° |
| 2026-04-29 01:19 | 49.22158 | 6.55767 | 35124 ft | 455 kts | 160° |
| 2026-04-29 01:20 | 49.16018 | 6.59913 | 35129 ft | 455 kts | 161° |
| 2026-04-29 01:20 | 49.09945 | 6.63998 | 35129 ft | 455 kts | 161° |
| 2026-04-29 01:21 | 49.03972 | 6.68013 | 35117 ft | 454 kts | 161° |
| 2026-04-29 01:21 | 48.97921 | 6.72066 | 35113 ft | 454 kts | 161° |
| 2026-04-29 01:22 | 48.91818 | 6.76223 | 35108 ft | 454 kts | 161° |
| 2026-04-29 01:22 | 48.85720 | 6.80388 | 35105 ft | 455 kts | 161° |
| 2026-04-29 01:23 | 48.79645 | 6.84521 | 35099 ft | 455 kts | 161° |
| 2026-04-29 01:23 | 48.73532 | 6.88666 | 35101 ft | 455 kts | 161° |
| 2026-04-29 01:24 | 48.67445 | 6.92784 | 35099 ft | 455 kts | 161° |
| 2026-04-29 01:24 | 48.61385 | 6.96873 | 35093 ft | 455 kts | 161° |
| 2026-04-29 01:25 | 48.55314 | 7.00958 | 35091 ft | 454 kts | 161° |
| 2026-04-29 01:25 | 48.50276 | 7.04344 | 35085 ft | 455 kts | 161° |
| 2026-04-29 01:26 | 48.43174 | 7.09102 | 35089 ft | 455 kts | 161° |
| 2026-04-29 01:26 | 48.37107 | 7.13152 | 35088 ft | 455 kts | 160° |
| 2026-04-29 01:27 | 48.30996 | 7.17224 | 35084 ft | 455 kts | 161° |
| 2026-04-29 01:27 | 48.24839 | 7.21312 | 35087 ft | 456 kts | 161° |
| 2026-04-29 01:28 | 48.18756 | 7.25340 | 35082 ft | 455 kts | 161° |
| 2026-04-29 01:28 | 48.12645 | 7.29377 | 35080 ft | 455 kts | 161° |
| 2026-04-29 01:29 | 48.06617 | 7.33348 | 35080 ft | 456 kts | 161° |
| 2026-04-29 01:29 | 48.00648 | 7.37271 | 35074 ft | 456 kts | 161° |
| 2026-04-29 01:30 | 47.94536 | 7.41279 | 35075 ft | 456 kts | 161° |
| 2026-04-29 01:30 | 47.88390 | 7.45298 | 35070 ft | 456 kts | 160° |
| 2026-04-29 01:31 | 47.82281 | 7.49282 | 35071 ft | 456 kts | 161° |
| 2026-04-29 01:31 | 47.76139 | 7.53277 | 35069 ft | 456 kts | 161° |
| 2026-04-29 01:32 | 47.70147 | 7.57303 | 35070 ft | 458 kts | 159° |
| 2026-04-29 01:32 | 47.64188 | 7.61537 | 35065 ft | 458 kts | 159° |
| 2026-04-29 01:33 | 47.58179 | 7.65789 | 35064 ft | 457 kts | 159° |
| 2026-04-29 01:33 | 47.52145 | 7.70031 | 35063 ft | 457 kts | 159° |
| 2026-04-29 01:34 | 47.46112 | 7.74253 | 35068 ft | 458 kts | 159° |
| 2026-04-29 01:34 | 47.40031 | 7.78496 | 35064 ft | 458 kts | 160° |
| 2026-04-29 01:35 | 47.34089 | 7.82633 | 35068 ft | 458 kts | 159° |
| 2026-04-29 01:35 | 47.28230 | 7.86700 | 35073 ft | 459 kts | 159° |
| 2026-04-29 01:36 | 47.22236 | 7.90854 | 35076 ft | 458 kts | 159° |
| 2026-04-29 01:36 | 47.16263 | 7.94980 | 35076 ft | 458 kts | 159° |
| 2026-04-29 01:37 | 47.10292 | 7.99098 | 35079 ft | 458 kts | 159° |
| 2026-04-29 01:37 | 47.04411 | 8.03140 | 35078 ft | 458 kts | 160° |
| 2026-04-29 01:38 | 46.98489 | 8.07203 | 35073 ft | 459 kts | 160° |
| 2026-04-29 01:38 | 46.94718 | 8.09783 | 35068 ft | 458 kts | 160° |
| 2026-04-29 01:39 | 46.88740 | 8.13868 | 35072 ft | 457 kts | 160° |
| 2026-04-29 01:39 | 46.82909 | 8.17840 | 34877 ft | 459 kts | 160° |
| 2026-04-29 01:40 | 46.79957 | 8.19847 | 34049 ft | 463 kts | 160° |
| 2026-04-29 01:40 | 46.77007 | 8.21850 | 33432 ft | 460 kts | 159° |
| 2026-04-29 01:40 | 46.74022 | 8.23875 | 32901 ft | 455 kts | 159° |
| 2026-04-29 01:40 | 46.71059 | 8.25886 | 32406 ft | 449 kts | 159° |
| 2026-04-29 01:41 | 46.68077 | 8.27906 | 31927 ft | 443 kts | 159° |
| 2026-04-29 01:41 | 46.65205 | 8.29849 | 31458 ft | 438 kts | 159° |
| 2026-04-29 01:41 | 46.62304 | 8.31811 | 30990 ft | 433 kts | 159° |
| 2026-04-29 01:41 | 46.59441 | 8.33743 | 30505 ft | 428 kts | 159° |
| 2026-04-29 01:42 | 46.56649 | 8.35623 | 30043 ft | 423 kts | 159° |
| 2026-04-29 01:42 | 46.53853 | 8.37503 | 29583 ft | 418 kts | 159° |
| 2026-04-29 01:42 | 46.51077 | 8.39370 | 29117 ft | 414 kts | 159° |
| 2026-04-29 01:42 | 46.48347 | 8.41202 | 28661 ft | 410 kts | 159° |
| 2026-04-29 01:43 | 46.45611 | 8.43036 | 28203 ft | 405 kts | 159° |
| 2026-04-29 01:43 | 46.42983 | 8.44798 | 27765 ft | 401 kts | 159° |
| 2026-04-29 01:43 | 46.40322 | 8.46581 | 27300 ft | 397 kts | 159° |
| 2026-04-29 01:43 | 46.37656 | 8.48364 | 26840 ft | 393 kts | 158° |
| 2026-04-29 01:44 | 46.35058 | 8.50100 | 26384 ft | 389 kts | 158° |
| 2026-04-29 01:44 | 46.32471 | 8.51826 | 25937 ft | 385 kts | 158° |
| 2026-04-29 01:44 | 46.29932 | 8.53518 | 25491 ft | 382 kts | 158° |
| 2026-04-29 01:44 | 46.27368 | 8.55226 | 25030 ft | 379 kts | 158° |
| 2026-04-29 01:45 | 46.24849 | 8.56901 | 24571 ft | 375 kts | 158° |
| 2026-04-29 01:45 | 46.22364 | 8.58553 | 24129 ft | 372 kts | 158° |
| 2026-04-29 01:45 | 46.19884 | 8.60198 | 23696 ft | 369 kts | 158° |
| 2026-04-29 01:45 | 46.17414 | 8.61838 | 23253 ft | 367 kts | 158° |
| 2026-04-29 01:46 | 46.15026 | 8.63420 | 22823 ft | 364 kts | 158° |
| 2026-04-29 01:46 | 46.12611 | 8.65020 | 22384 ft | 362 kts | 158° |
| 2026-04-29 01:46 | 46.10258 | 8.66619 | 21955 ft | 360 kts | 155° |
| 2026-04-29 01:46 | 46.07975 | 8.68374 | 21531 ft | 358 kts | 154° |
| 2026-04-29 01:47 | 46.05686 | 8.70168 | 21095 ft | 356 kts | 154° |
| 2026-04-29 01:47 | 46.03445 | 8.71927 | 20648 ft | 355 kts | 153° |
| 2026-04-29 01:47 | 46.01178 | 8.73705 | 20204 ft | 353 kts | 153° |
| 2026-04-29 01:47 | 45.98936 | 8.75461 | 19756 ft | 351 kts | 153° |
| 2026-04-29 01:48 | 45.96674 | 8.77229 | 19316 ft | 349 kts | 153° |
| 2026-04-29 01:48 | 45.94415 | 8.78994 | 18873 ft | 347 kts | 153° |
| 2026-04-29 01:48 | 45.92190 | 8.80732 | 18435 ft | 346 kts | 153° |
| 2026-04-29 01:48 | 45.89970 | 8.82462 | 17994 ft | 344 kts | 153° |
| 2026-04-29 01:49 | 45.87777 | 8.84170 | 17565 ft | 342 kts | 153° |
| 2026-04-29 01:49 | 45.85647 | 8.85828 | 17146 ft | 340 kts | 153° |
| 2026-04-29 01:49 | 45.83470 | 8.87519 | 16730 ft | 338 kts | 153° |
| 2026-04-29 01:49 | 45.81347 | 8.89167 | 16441 ft | 331 kts | 153° |
| 2026-04-29 01:50 | 45.79253 | 8.90792 | 16153 ft | 325 kts | 153° |
| 2026-04-29 01:50 | 45.77172 | 8.92406 | 15751 ft | 322 kts | 153° |
| 2026-04-29 01:50 | 45.75115 | 8.93997 | 15344 ft | 320 kts | 153° |
| 2026-04-29 01:50 | 45.73051 | 8.95593 | 14943 ft | 318 kts | 153° |
| 2026-04-29 01:51 | 45.71039 | 8.97149 | 14558 ft | 316 kts | 153° |
| 2026-04-29 01:51 | 45.69031 | 8.98703 | 14171 ft | 313 kts | 153° |
| 2026-04-29 01:51 | 45.67032 | 9.00245 | 13779 ft | 310 kts | 153° |
| 2026-04-29 01:51 | 45.65112 | 9.01726 | 13408 ft | 308 kts | 153° |
| 2026-04-29 01:52 | 45.63168 | 9.03223 | 13031 ft | 305 kts | 153° |
| 2026-04-29 01:52 | 45.61235 | 9.04707 | 12646 ft | 303 kts | 153° |
| 2026-04-29 01:52 | 45.59305 | 9.06188 | 12264 ft | 300 kts | 153° |
| 2026-04-29 01:52 | 45.57400 | 9.07648 | 11879 ft | 298 kts | 153° |
| 2026-04-29 01:53 | 45.55480 | 9.09119 | 11492 ft | 295 kts | 153° |
| 2026-04-29 01:53 | 45.53616 | 9.10546 | 11183 ft | 290 kts | 153° |
| 2026-04-29 01:53 | 45.51757 | 9.11945 | 11089 ft | 277 kts | 157° |
| 2026-04-29 01:53 | 45.49867 | 9.12779 | 11026 ft | 264 kts | 172° |
| 2026-04-29 01:54 | 45.47940 | 9.13068 | 11052 ft | 264 kts | 176° |
| 2026-04-29 01:54 | 45.46008 | 9.13265 | 11059 ft | 264 kts | 176° |
| 2026-04-29 01:54 | 45.44068 | 9.13460 | 11062 ft | 264 kts | 176° |
| 2026-04-29 01:54 | 45.42133 | 9.13663 | 11060 ft | 264 kts | 176° |
| 2026-04-29 01:55 | 45.40184 | 9.13874 | 11061 ft | 264 kts | 176° |
| 2026-04-29 01:55 | 45.38263 | 9.14086 | 11074 ft | 264 kts | 176° |
| 2026-04-29 01:55 | 45.36355 | 9.14299 | 11077 ft | 264 kts | 176° |
| 2026-04-29 01:55 | 45.34417 | 9.14516 | 11078 ft | 264 kts | 176° |
| 2026-04-29 01:56 | 45.32482 | 9.14733 | 11075 ft | 265 kts | 176° |
| 2026-04-29 01:56 | 45.30562 | 9.14949 | 11066 ft | 265 kts | 176° |
| 2026-04-29 01:56 | 45.28632 | 9.15165 | 11073 ft | 265 kts | 176° |
| 2026-04-29 01:56 | 45.26695 | 9.15381 | 11062 ft | 265 kts | 176° |
| 2026-04-29 01:57 | 45.24780 | 9.15613 | 11069 ft | 263 kts | 172° |
| 2026-04-29 01:57 | 45.23066 | 9.16650 | 11022 ft | 250 kts | 135° |
| 2026-04-29 01:57 | 45.22208 | 9.18900 | 11046 ft | 251 kts | 99° |
| 2026-04-29 01:57 | 45.22266 | 9.21543 | 11055 ft | 252 kts | 84° |
| 2026-04-29 01:58 | 45.22487 | 9.24135 | 11051 ft | 252 kts | 84° |
| 2026-04-29 01:58 | 45.22752 | 9.26751 | 11036 ft | 252 kts | 72° |
| 2026-04-29 01:58 | 45.23800 | 9.28872 | 11035 ft | 255 kts | 33° |
| 2026-04-29 01:58 | 45.25550 | 9.29618 | 11045 ft | 255 kts | 354° |
| 2026-04-29 01:59 | 45.27286 | 9.28685 | 11070 ft | 253 kts | 322° |
| 2026-04-29 01:59 | 45.28783 | 9.27098 | 11057 ft | 253 kts | 322° |
| 2026-04-29 01:59 | 45.30328 | 9.25629 | 11032 ft | 253 kts | 327° |
| 2026-04-29 01:59 | 45.31939 | 9.24324 | 11007 ft | 254 kts | 330° |
| 2026-04-29 02:00 | 45.33595 | 9.23124 | 11024 ft | 254 kts | 333° |
| 2026-04-29 02:00 | 45.35286 | 9.21974 | 11019 ft | 254 kts | 333° |
| 2026-04-29 02:00 | 45.36986 | 9.20851 | 10610 ft | 260 kts | 334° |
| 2026-04-29 02:00 | 45.38739 | 9.19704 | 10168 ft | 263 kts | 334° |
| 2026-04-29 02:01 | 45.40466 | 9.18576 | 9929 ft | 259 kts | 334° |
| 2026-04-29 02:01 | 45.42178 | 9.17469 | 9654 ft | 255 kts | 338° |
| 2026-04-29 02:01 | 45.43939 | 9.16779 | 9371 ft | 250 kts | 352° |
| 2026-04-29 02:01 | 45.45746 | 9.16530 | 9029 ft | 247 kts | 356° |
| 2026-04-29 02:02 | 45.47556 | 9.16362 | 8642 ft | 246 kts | 356° |
| 2026-04-29 02:02 | 45.49351 | 9.16196 | 8273 ft | 244 kts | 356° |
| 2026-04-29 02:02 | 45.51129 | 9.16018 | 7905 ft | 241 kts | 356° |
| 2026-04-29 02:02 | 45.52893 | 9.15832 | 7526 ft | 240 kts | 356° |
| 2026-04-29 02:03 | 45.54639 | 9.15643 | 7171 ft | 237 kts | 356° |
| 2026-04-29 02:03 | 45.56366 | 9.15454 | 6799 ft | 235 kts | 356° |
| 2026-04-29 02:03 | 45.58093 | 9.15264 | 6426 ft | 233 kts | 356° |
| 2026-04-29 02:03 | 45.59795 | 9.15078 | 6080 ft | 230 kts | 356° |
| 2026-04-29 02:04 | 45.61398 | 9.14901 | 5777 ft | 226 kts | 356° |
| 2026-04-29 02:04 | 45.63011 | 9.14740 | 5466 ft | 222 kts | 2° |
| 2026-04-29 02:04 | 45.64479 | 9.15392 | 5132 ft | 215 kts | 43° |
| 2026-04-29 02:04 | 45.65254 | 9.17264 | 4784 ft | 212 kts | 81° |
| 2026-04-29 02:05 | 45.65322 | 9.19423 | 4482 ft | 208 kts | 88° |
| 2026-04-29 02:05 | 45.65348 | 9.21583 | 4192 ft | 204 kts | 87° |
| 2026-04-29 02:05 | 45.65329 | 9.23681 | 4007 ft | 202 kts | 102° |
| 2026-04-29 02:05 | 45.64551 | 9.25410 | 3887 ft | 207 kts | 147° |
| 2026-04-29 02:06 | 45.63141 | 9.25923 | 3655 ft | 208 kts | 179° |
| 2026-04-29 02:06 | 45.61594 | 9.25942 | 3394 ft | 208 kts | 177° |
| 2026-04-29 02:06 | 45.60066 | 9.26035 | 3132 ft | 206 kts | 175° |
| 2026-04-29 02:06 | 45.58574 | 9.26168 | 2893 ft | 201 kts | 174° |
| 2026-04-29 02:07 | 45.57145 | 9.26313 | 2644 ft | 188 kts | 174° |
| 2026-04-29 02:07 | 45.55805 | 9.26455 | 2368 ft | 176 kts | 174° |
| 2026-04-29 02:07 | 45.54557 | 9.26590 | 2097 ft | 166 kts | 174° |
| 2026-04-29 02:07 | 45.53368 | 9.26719 | 1852 ft | 156 kts | 174° |
| 2026-04-29 02:08 | 45.52249 | 9.26839 | 1644 ft | 151 kts | 174° |
| 2026-04-29 02:08 | 45.51173 | 9.26956 | 1452 ft | 151 kts | 173° |
| 2026-04-29 02:08 | 45.50074 | 9.27076 | 1248 ft | 151 kts | 174° |
| 2026-04-29 02:08 | 45.48973 | 9.27196 | 1038 ft | 150 kts | 174° |
| 2026-04-29 02:09 | 45.47865 | 9.27315 | 825 ft | 150 kts | 174° |
| 2026-04-29 02:09 | 45.46764 | 9.27461 | 618 ft | 149 kts | 171° |
| 2026-04-29 02:09 | 45.45674 | 9.27575 | 414 ft | 149 kts | 175° |
| 2026-04-29 02:09 | 45.44642 | 9.27705 | 351 ft | 114 kts | 173° |
| 2026-04-29 02:10 | 45.44060 | 9.27759 | 344 ft | 57 kts | 176° |
| 2026-04-29 02:10 | 45.43719 | 9.27804 | 344 ft | 42 kts | 176° |
| 2026-04-29 02:10 | 45.43479 | 9.27841 | 340 ft | 14 kts | 169° |
| 2026-04-29 02:10 | 45.43445 | 9.27949 | 340 ft | 13 kts | 84° |
| 2026-04-29 02:11 | 45.43486 | 9.28073 | 339 ft | 13 kts | 19° |
| 2026-04-29 02:11 | 45.43585 | 9.28071 | 339 ft | 14 kts | 353° |
| 2026-04-29 02:11 | 45.43690 | 9.28063 | 339 ft | 14 kts | 2° |
| 2026-04-29 02:11 | 45.43799 | 9.28052 | 339 ft | 15 kts | 355° |
| 2026-04-29 02:12 | 45.43909 | 9.28044 | 340 ft | 15 kts | 357° |
| 2026-04-29 02:12 | 45.44022 | 9.28028 | 341 ft | 15 kts | 355° |
| 2026-04-29 02:12 | 45.44133 | 9.28017 | 343 ft | 14 kts | 357° |
| 2026-04-29 02:12 | 45.44242 | 9.28009 | 343 ft | 14 kts | 356° |
| 2026-04-29 02:13 | 45.44355 | 9.27996 | 344 ft | 15 kts | 356° |
| 2026-04-29 02:13 | 45.44461 | 9.27983 | 346 ft | 14 kts | 355° |
| 2026-04-29 02:13 | 45.44562 | 9.27974 | 348 ft | 13 kts | 357° |
| 2026-04-29 02:13 | 45.44654 | 9.27964 | 350 ft | 11 kts | 352° |
| 2026-04-29 02:14 | 45.44732 | 9.27952 | 351 ft | 10 kts | 355° |
| 2026-04-29 02:14 | 45.44798 | 9.27946 | 353 ft | 8 kts | 357° |
| 2026-04-29 02:14 | 45.44863 | 9.27934 | 353 ft | 9 kts | 345° |
| 2026-04-29 02:14 | 45.44934 | 9.27906 | 353 ft | 11 kts | 344° |
| 2026-04-29 02:15 | 45.45018 | 9.27884 | 353 ft | 12 kts | 354° |
| 2026-04-29 02:15 | 45.45111 | 9.27878 | 353 ft | 13 kts | 358° |
| 2026-04-29 02:15 | 45.45212 | 9.27871 | 352 ft | 15 kts | 4° |
| 2026-04-29 02:15 | 45.45316 | 9.27926 | 352 ft | 15 kts | 26° |
| 2026-04-29 02:16 | 45.45417 | 9.27980 | 353 ft | 14 kts | 2° |
| 2026-04-29 02:16 | 45.45525 | 9.27979 | 353 ft | 15 kts | 360° |
| 2026-04-29 02:16 | 45.45632 | 9.27984 | 355 ft | 14 kts | 359° |
| 2026-04-29 02:16 | 45.45690 | 9.27950 | 356 ft | 6 kts | 266° |
| 2026-04-29 02:17 | 45.45690 | 9.27918 | 355 ft | 3 kts | 277° |
| 2026-04-29 02:17 | 45.45690 | 9.27883 | 355 ft | 0 kts | 270° |